createdAt,value
2019-03-28T00:00:03.275Z,16.37
2019-03-28T00:02:32.112Z,19.53
2019-03-28T00:05:00.967Z,18.00
2019-03-28T00:07:29.808Z,17.13
2019-03-28T00:09:58.882Z,19.70
2019-03-28T00:12:28.293Z,18.50
2019-03-28T00:14:57.866Z,18.87
2019-03-28T00:17:26.688Z,18.97
2019-03-28T00:19:55.670Z,20.27
2019-03-28T00:22:25.104Z,19.43
2019-03-28T00:24:55.876Z,19.90
2019-03-28T00:27:24.715Z,20.20
2019-03-28T00:29:54.265Z,18.83
2019-03-28T00:32:22.387Z,19.83
2019-03-28T00:34:51.235Z,19.53
2019-03-28T00:37:20.077Z,19.20
2019-03-28T00:39:48.912Z,21.80
2019-03-28T00:42:18.364Z,20.37
2019-03-28T00:44:47.209Z,22.45
2019-03-28T00:47:16.800Z,21.30
2019-03-28T00:49:46.384Z,20.90
2019-03-28T00:52:15.236Z,22.20
2019-03-28T00:54:44.080Z,21.87
2019-03-28T00:57:13.656Z,20.97
2019-03-28T00:59:42.501Z,23.62
2019-03-28T01:02:11.348Z,21.37
2019-03-28T01:04:40.218Z,20.50
2019-03-28T01:07:09.046Z,20.60
2019-03-28T01:09:37.894Z,21.43
2019-03-28T01:12:06.747Z,22.90
2019-03-28T01:14:35.603Z,22.10
2019-03-28T01:17:05.277Z,21.60
2019-03-28T01:19:34.060Z,23.25
2019-03-28T01:22:02.895Z,23.95
2019-03-28T01:24:32.477Z,22.57
2019-03-28T01:27:01.316Z,23.12
2019-03-28T01:29:30.147Z,21.67
2019-03-28T01:31:58.988Z,21.73
2019-03-28T01:34:27.824Z,22.00
2019-03-28T01:36:56.665Z,22.63
2019-03-28T01:39:25.511Z,22.07
2019-03-28T01:41:54.362Z,22.83
2019-03-28T01:44:23.196Z,22.03
2019-03-28T01:46:52.028Z,23.33
2019-03-28T01:49:20.888Z,22.77
2019-03-28T01:51:49.737Z,23.63
2019-03-28T01:54:18.580Z,25.52
2019-03-28T01:56:48.186Z,23.60
2019-03-28T01:59:17.767Z,22.60
2019-03-28T02:01:46.604Z,22.27
2019-03-28T02:04:15.436Z,22.90
2019-03-28T02:06:44.293Z,22.87
2019-03-28T02:09:13.139Z,23.13
2019-03-28T02:11:42.734Z,24.52
2019-03-28T02:14:12.346Z,25.40
2019-03-28T02:16:40.442Z,22.80
2019-03-28T02:19:10.022Z,24.33
2019-03-28T02:21:38.874Z,23.93
2019-03-28T02:24:07.724Z,24.23
2019-03-28T02:26:36.572Z,24.43
2019-03-28T02:29:05.420Z,23.87
2019-03-28T02:31:34.257Z,24.27
2019-03-28T02:34:03.847Z,23.73
2019-03-28T02:36:32.688Z,24.43
2019-03-28T02:39:01.536Z,24.97
2019-03-28T02:41:30.428Z,24.77
2019-03-28T02:43:59.269Z,24.60
2019-03-28T02:46:28.117Z,25.07
2019-03-28T02:48:56.981Z,25.13
2019-03-28T02:51:25.814Z,24.73
2019-03-28T02:53:54.667Z,24.20
2019-03-28T02:56:23.634Z,25.30
2019-03-28T02:58:52.340Z,26.37
2019-03-28T03:01:21.183Z,25.63
2019-03-28T03:03:50.045Z,25.40
2019-03-28T03:06:18.867Z,25.80
2019-03-28T03:08:47.698Z,25.73
2019-03-28T03:11:16.552Z,25.47
2019-03-28T03:13:45.858Z,25.40
2019-03-28T03:16:14.229Z,25.50
2019-03-28T03:18:43.074Z,26.97
2019-03-28T03:21:12.489Z,25.43
2019-03-28T03:23:41.339Z,26.03
2019-03-28T03:26:10.175Z,27.52
2019-03-28T03:28:39.007Z,27.10
2019-03-28T03:31:07.849Z,25.60
2019-03-28T03:33:37.980Z,26.20
2019-03-28T03:36:06.285Z,24.40
2019-03-28T03:38:35.115Z,25.57
2019-03-28T03:41:03.962Z,25.03
2019-03-28T03:43:33.946Z,25.53
2019-03-28T03:46:02.774Z,25.23
2019-03-28T03:48:31.618Z,26.67
2019-03-28T03:51:01.205Z,25.70
2019-03-28T03:53:30.058Z,26.00
2019-03-28T03:55:58.886Z,24.77
2019-03-28T03:58:27.719Z,25.90
2019-03-28T04:00:56.649Z,25.70
2019-03-28T04:03:25.477Z,26.43
2019-03-28T04:05:54.331Z,25.20
2019-03-28T04:08:23.164Z,25.63
2019-03-28T04:10:52.007Z,25.17
2019-03-28T04:13:20.849Z,24.53
2019-03-28T04:15:49.685Z,25.27
2019-03-28T04:18:21.919Z,25.67
2019-03-28T04:20:47.351Z,25.47
2019-03-28T04:23:16.207Z,26.40
2019-03-28T04:25:45.029Z,25.50
2019-03-28T04:28:24.787Z,23.97
2019-03-28T04:30:42.755Z,23.70
2019-03-28T04:33:12.326Z,24.83
2019-03-28T04:35:41.173Z,25.50
2019-03-28T04:38:10.019Z,24.23
2019-03-28T04:40:38.880Z,25.40
2019-03-28T04:43:07.732Z,27.10
2019-03-28T04:45:36.572Z,25.17
2019-03-28T04:48:05.413Z,24.90
2019-03-28T04:50:34.248Z,25.73
2019-03-28T04:53:03.088Z,24.10
2019-03-28T04:55:31.928Z,25.40
2019-03-28T04:58:00.762Z,25.77
2019-03-28T05:00:29.606Z,26.03
2019-03-28T05:02:58.459Z,24.97
2019-03-28T05:05:27.297Z,26.23
2019-03-28T05:07:56.123Z,26.40
2019-03-28T05:10:24.975Z,24.93
2019-03-28T05:12:53.801Z,25.53
2019-03-28T05:15:22.650Z,27.52
2019-03-28T05:17:51.479Z,25.60
2019-03-28T05:20:20.311Z,24.63
2019-03-28T05:22:49.151Z,26.13
2019-03-28T05:25:17.984Z,24.47
2019-03-28T05:27:46.826Z,26.20
2019-03-28T05:30:15.678Z,27.40
2019-03-28T05:32:44.506Z,29.40
2019-03-28T05:35:13.382Z,28.27
2019-03-28T05:37:42.190Z,29.47
2019-03-28T05:40:11.101Z,29.67
2019-03-28T05:42:39.876Z,28.33
2019-03-28T05:45:08.706Z,28.97
2019-03-28T05:47:37.536Z,28.10
2019-03-28T05:50:06.405Z,28.63
2019-03-28T05:52:35.251Z,31.20
2019-03-28T05:55:05.506Z,29.23
2019-03-28T05:57:32.936Z,30.20
2019-03-28T06:00:01.789Z,36.35
2019-03-28T06:02:30.616Z,32.50
2019-03-28T06:05:00.454Z,32.33
2019-03-28T06:07:29.258Z,32.60
2019-03-28T06:09:58.852Z,37.88
2019-03-28T06:12:27.708Z,35.50
2019-03-28T06:14:56.600Z,34.70
2019-03-28T06:17:25.437Z,34.87
2019-03-28T06:19:55.022Z,34.73
2019-03-28T06:22:23.846Z,36.53
2019-03-28T06:24:52.692Z,34.03
2019-03-28T06:27:21.667Z,37.23
2019-03-28T06:29:50.502Z,35.77
2019-03-28T06:32:20.086Z,38.70
2019-03-28T06:34:48.951Z,37.37
2019-03-28T06:37:17.786Z,40.53
2019-03-28T06:39:46.633Z,40.97
2019-03-28T06:42:15.462Z,39.97
2019-03-28T06:44:45.044Z,40.33
2019-03-28T06:47:14.461Z,38.47
2019-03-28T06:49:44.097Z,37.57
2019-03-28T06:52:12.910Z,39.67
2019-03-28T06:54:41.756Z,40.37
2019-03-28T06:57:10.608Z,42.87
2019-03-28T06:59:39.442Z,46.22
2019-03-28T07:02:08.285Z,42.40
2019-03-28T07:04:37.166Z,42.23
2019-03-28T07:07:06.632Z,47.30
2019-03-28T07:09:34.851Z,45.87
2019-03-28T07:12:03.690Z,50.00
2019-03-28T07:14:32.542Z,46.67
2019-03-28T07:17:01.388Z,47.30
2019-03-28T07:19:30.244Z,46.50
2019-03-28T07:21:59.131Z,46.27
2019-03-28T07:24:27.993Z,51.37
2019-03-28T07:26:56.836Z,50.88
2019-03-28T07:29:25.727Z,46.23
2019-03-28T07:31:54.500Z,47.60
2019-03-28T07:34:23.357Z,46.50
2019-03-28T07:36:52.213Z,44.83
2019-03-28T07:39:21.046Z,43.20
2019-03-28T07:41:50.623Z,44.27
2019-03-28T07:44:19.482Z,44.93
2019-03-28T07:46:48.318Z,45.80
2019-03-28T07:49:17.160Z,45.03
2019-03-28T07:51:45.998Z,43.70
2019-03-28T07:54:14.837Z,47.15
2019-03-28T07:56:43.773Z,46.58
2019-03-28T07:59:12.617Z,44.00
2019-03-28T08:01:41.453Z,43.57
2019-03-28T08:04:12.320Z,42.27
2019-03-28T08:06:49.163Z,42.73
2019-03-28T08:09:08.046Z,41.17
2019-03-28T08:11:38.714Z,43.53
2019-03-28T08:14:06.465Z,44.47
2019-03-28T08:16:35.303Z,43.60
2019-03-28T08:19:04.151Z,41.30
2019-03-28T08:21:32.987Z,41.33
2019-03-28T08:24:01.825Z,39.03
2019-03-28T08:26:30.677Z,37.47
2019-03-28T08:28:59.520Z,39.10
2019-03-28T08:31:28.375Z,37.93
2019-03-28T08:33:57.300Z,39.03
2019-03-28T08:36:26.135Z,38.07
2019-03-28T08:38:54.977Z,37.83
2019-03-28T08:41:23.801Z,37.10
2019-03-28T08:43:52.647Z,36.77
2019-03-28T08:46:21.469Z,33.97
2019-03-28T08:48:50.314Z,28.60
2019-03-28T08:51:19.164Z,30.70
2019-03-28T08:53:48.027Z,30.00
2019-03-28T08:56:16.872Z,29.50
2019-03-28T08:58:45.717Z,28.53
2019-03-28T09:01:15.151Z,29.80
2019-03-28T09:03:43.985Z,30.20
2019-03-28T09:06:12.832Z,28.87
2019-03-28T09:08:41.731Z,28.37
2019-03-28T09:11:10.518Z,28.03
2019-03-28T09:13:39.351Z,27.93
2019-03-28T09:16:08.189Z,26.13
2019-03-28T09:18:37.039Z,28.23
2019-03-28T09:21:05.889Z,27.33
2019-03-28T09:23:34.733Z,26.10
2019-03-28T09:26:04.517Z,26.57
2019-03-28T09:28:32.475Z,30.13
2019-03-28T09:31:01.371Z,28.97
2019-03-28T09:33:30.198Z,28.80
2019-03-28T09:35:59.889Z,27.07
2019-03-28T09:38:28.690Z,26.63
2019-03-28T09:40:58.290Z,27.33
2019-03-28T09:43:27.141Z,26.87
2019-03-28T09:45:55.993Z,27.47
2019-03-28T09:48:24.853Z,27.43
2019-03-28T09:50:53.723Z,26.20
2019-03-28T09:53:22.581Z,30.27
2019-03-28T09:55:51.473Z,27.97
2019-03-28T09:58:20.305Z,28.00
2019-03-28T10:01:02.088Z,28.17
2019-03-28T10:03:17.985Z,27.87
2019-03-28T10:05:47.426Z,27.63
2019-03-28T10:08:16.295Z,26.75
2019-03-28T10:10:48.583Z,24.57
2019-03-28T10:13:15.479Z,22.30
2019-03-28T10:15:44.338Z,21.30
2019-03-28T10:18:13.204Z,20.70
2019-03-28T10:20:42.075Z,18.50
2019-03-28T10:23:10.941Z,18.97
2019-03-28T10:25:40.573Z,19.17
2019-03-28T10:28:08.708Z,20.05
2019-03-28T10:30:37.539Z,19.03
2019-03-28T10:35:26.248Z,18.63
2019-03-28T10:37:55.097Z,20.23
2019-03-28T10:40:24.691Z,18.20
2019-03-28T10:42:53.539Z,24.53
2019-03-28T10:45:22.394Z,22.20
2019-03-28T10:47:51.241Z,19.37
2019-03-28T10:50:20.853Z,19.67
2019-03-28T10:52:50.315Z,20.43
2019-03-28T10:55:19.158Z,20.12
2019-03-28T10:57:48.035Z,18.50
2019-03-28T11:00:23.869Z,19.73
2019-03-28T11:02:45.804Z,19.17
2019-03-28T11:05:14.763Z,16.13
2019-03-28T11:07:43.477Z,14.33
2019-03-28T11:10:12.283Z,13.63
2019-03-28T11:12:41.137Z,12.93
2019-03-28T11:15:09.977Z,13.73
2019-03-28T11:17:39.581Z,13.63
2019-03-28T11:20:09.801Z,15.05
2019-03-28T11:22:38.114Z,14.05
2019-03-28T11:25:06.879Z,13.98
2019-03-28T11:27:35.744Z,13.67
2019-03-28T11:30:05.175Z,12.33
2019-03-28T11:32:35.891Z,12.60
2019-03-28T11:35:02.909Z,12.10
2019-03-28T11:37:31.753Z,13.90
2019-03-28T11:40:00.616Z,12.67
2019-03-28T11:42:30.214Z,12.10
2019-03-28T11:44:59.059Z,11.60
2019-03-28T11:47:27.894Z,12.83
2019-03-28T11:49:56.758Z,12.40
2019-03-28T11:52:25.610Z,12.85
2019-03-28T11:54:54.459Z,11.53
2019-03-28T11:57:23.309Z,10.60
2019-03-28T11:59:52.153Z,12.00
2019-03-28T12:02:21.018Z,12.30
2019-03-28T12:04:49.859Z,10.83
2019-03-28T12:07:18.707Z,9.80
2019-03-28T12:09:47.549Z,10.27
2019-03-28T12:12:16.385Z,9.93
2019-03-28T12:14:45.972Z,8.83
2019-03-28T12:17:14.811Z,12.60
2019-03-28T12:19:43.671Z,12.70
2019-03-28T12:22:12.571Z,11.43
2019-03-28T12:24:41.443Z,11.53
2019-03-28T12:27:10.289Z,12.47
2019-03-28T12:29:39.150Z,12.53
2019-03-28T12:32:14.275Z,13.30
2019-03-28T12:34:38.357Z,13.10
2019-03-28T12:37:07.955Z,13.45
2019-03-28T12:39:37.551Z,13.33
2019-03-28T12:42:06.401Z,14.32
2019-03-28T12:44:35.247Z,13.23
2019-03-28T12:47:04.097Z,13.17
2019-03-28T12:49:32.985Z,12.70
2019-03-28T12:52:01.826Z,11.93
2019-03-28T12:54:30.673Z,11.90
2019-03-28T12:56:59.517Z,11.83
2019-03-28T12:59:28.399Z,10.90
2019-03-28T13:01:57.222Z,10.27
2019-03-28T13:04:26.070Z,11.93
2019-03-28T13:06:54.969Z,10.80
2019-03-28T13:09:23.981Z,11.07
2019-03-28T13:11:52.810Z,10.45
2019-03-28T13:14:21.737Z,10.67
2019-03-28T13:16:50.593Z,11.00
2019-03-28T13:19:19.399Z,9.63
2019-03-28T13:21:48.275Z,9.53
2019-03-28T13:24:17.174Z,10.90
2019-03-28T13:26:46.113Z,9.77
2019-03-28T13:29:14.948Z,9.20
2019-03-28T13:31:43.783Z,7.93
2019-03-28T13:34:12.623Z,7.17
2019-03-28T13:36:41.475Z,7.47
2019-03-28T13:39:10.411Z,7.40
2019-03-28T13:41:39.227Z,7.40
2019-03-28T13:44:08.099Z,6.97
2019-03-28T13:46:37.845Z,6.80
2019-03-28T13:49:06.654Z,6.00
2019-03-28T13:51:35.496Z,6.63
2019-03-28T13:54:04.340Z,6.77
2019-03-28T13:56:33.186Z,5.80
2019-03-28T13:59:02.032Z,5.47
2019-03-28T14:01:30.898Z,6.10
2019-03-28T14:03:59.826Z,6.53
2019-03-28T14:06:28.702Z,6.10
2019-03-28T14:08:57.546Z,6.15
2019-03-28T14:11:26.357Z,5.67
2019-03-28T14:13:55.271Z,5.93
2019-03-28T14:16:24.119Z,5.50
2019-03-28T14:18:52.983Z,6.20
2019-03-28T14:21:21.805Z,4.97
2019-03-28T14:23:50.655Z,4.80
2019-03-28T14:26:20.264Z,4.70
2019-03-28T14:28:50.343Z,4.50
2019-03-28T14:31:18.031Z,4.67
2019-03-28T14:33:46.896Z,4.50
2019-03-28T14:36:15.742Z,4.67
2019-03-28T14:38:44.616Z,4.87
2019-03-28T14:41:13.484Z,5.13
2019-03-28T14:43:42.307Z,5.97
2019-03-28T14:46:11.139Z,5.75
2019-03-28T14:48:39.997Z,5.37
2019-03-28T14:51:08.853Z,5.10
2019-03-28T14:53:38.494Z,5.40
2019-03-28T14:56:07.319Z,5.57
2019-03-28T14:58:36.922Z,5.53
2019-03-28T15:01:05.751Z,5.50
2019-03-28T15:03:34.576Z,5.30
2019-03-28T15:06:03.420Z,4.77
2019-03-28T15:08:32.273Z,4.70
2019-03-28T15:11:01.681Z,4.13
2019-03-28T15:13:29.958Z,3.57
2019-03-28T15:15:59.553Z,3.07
2019-03-28T15:18:28.414Z,3.00
2019-03-28T15:20:57.246Z,2.85
2019-03-28T15:23:26.098Z,3.10
2019-03-28T15:26:07.477Z,3.43
2019-03-28T15:28:37.109Z,3.83
2019-03-28T15:31:06.676Z,4.07
2019-03-28T15:33:39.855Z,3.90
2019-03-28T15:36:05.122Z,4.72
2019-03-28T15:38:33.972Z,4.90
2019-03-28T15:41:02.905Z,4.27
2019-03-28T15:43:31.680Z,4.37
2019-03-28T15:46:00.554Z,4.27
2019-03-28T15:48:29.434Z,4.47
2019-03-28T15:50:58.260Z,4.53
2019-03-28T15:53:27.112Z,5.20
2019-03-28T15:55:55.963Z,5.03
2019-03-28T15:58:24.794Z,5.10
2019-03-28T16:00:53.654Z,5.03
2019-03-28T16:03:22.512Z,4.40
2019-03-28T16:05:58.283Z,4.97
2019-03-28T16:08:20.950Z,4.72
2019-03-28T16:10:50.547Z,4.90
2019-03-28T16:13:19.435Z,4.80
2019-03-28T16:15:48.252Z,4.87
2019-03-28T16:18:17.141Z,5.00
2019-03-28T16:20:45.970Z,5.15
2019-03-28T16:23:14.799Z,4.20
2019-03-28T16:25:43.627Z,4.43
2019-03-28T16:28:12.475Z,4.53
2019-03-28T16:30:41.329Z,5.30
2019-03-28T16:33:10.169Z,4.97
2019-03-28T16:35:39.016Z,4.90
2019-03-28T16:38:07.949Z,4.70
2019-03-28T16:40:37.555Z,4.50
2019-03-28T16:43:07.609Z,4.60
2019-03-28T16:45:36.008Z,4.57
2019-03-28T16:48:04.860Z,4.72
2019-03-28T16:50:34.194Z,4.37
2019-03-28T16:53:02.628Z,4.80
2019-03-28T16:55:32.208Z,4.50
2019-03-28T16:58:01.076Z,5.10
2019-03-28T17:00:33.814Z,4.55
2019-03-28T17:03:02.647Z,4.77
2019-03-28T17:05:34.514Z,4.73
2019-03-28T17:08:00.420Z,5.17
2019-03-28T17:10:33.077Z,4.70
2019-03-28T17:13:01.939Z,4.43
2019-03-28T17:15:31.566Z,4.03
2019-03-28T17:18:01.124Z,4.50
2019-03-28T17:20:29.995Z,4.30
2019-03-28T17:22:58.845Z,4.50
2019-03-28T17:25:27.726Z,4.10
2019-03-28T17:27:56.615Z,4.63
2019-03-28T17:30:25.440Z,4.20
2019-03-28T17:32:54.285Z,4.30
2019-03-28T17:35:23.132Z,4.10
2019-03-28T17:37:51.986Z,4.37
2019-03-28T17:40:20.824Z,3.87
2019-03-28T17:42:50.195Z,4.37
2019-03-28T17:45:18.553Z,4.30
2019-03-28T17:47:47.396Z,4.17
2019-03-28T17:50:16.315Z,4.30
2019-03-28T17:52:45.175Z,4.20
2019-03-28T17:55:13.996Z,4.27
2019-03-28T17:57:42.852Z,3.63
2019-03-28T18:00:11.709Z,3.93
2019-03-28T18:02:40.559Z,3.97
2019-03-28T18:05:12.890Z,3.63
2019-03-28T18:07:39.014Z,3.97
2019-03-28T18:10:07.918Z,4.57
2019-03-28T18:12:36.740Z,4.73
2019-03-28T18:15:05.623Z,4.20
2019-03-28T18:17:34.488Z,4.50
2019-03-28T18:20:03.388Z,4.50
2019-03-28T18:22:32.254Z,4.80
2019-03-28T18:25:01.107Z,3.67
2019-03-28T18:27:29.966Z,4.23
2019-03-28T18:29:58.893Z,3.97
2019-03-28T18:32:27.727Z,4.50
2019-03-28T18:35:05.355Z,4.50
2019-03-28T18:37:25.450Z,4.37
2019-03-28T18:39:54.930Z,4.47
2019-03-28T18:42:23.173Z,3.77
2019-03-28T18:44:52.063Z,4.40
2019-03-28T18:47:20.972Z,4.97
2019-03-28T18:49:49.865Z,4.47
2019-03-28T18:52:18.748Z,4.23
2019-03-28T18:54:47.664Z,4.67
2019-03-28T18:57:19.613Z,4.47
2019-03-28T18:59:45.417Z,3.90
2019-03-28T19:02:14.266Z,4.18
2019-03-28T19:04:43.179Z,3.80
2019-03-28T19:07:12.006Z,3.60
2019-03-28T19:09:41.624Z,3.27
2019-03-28T19:12:11.220Z,3.80
2019-03-28T19:14:40.099Z,3.77
2019-03-28T19:17:08.960Z,3.72
2019-03-28T19:19:39.521Z,3.13
2019-03-28T19:22:06.740Z,3.20
2019-03-28T19:24:35.586Z,2.93
2019-03-28T19:27:04.452Z,3.20
2019-03-28T19:29:33.303Z,3.30
2019-03-28T19:32:02.164Z,3.13
2019-03-28T19:34:31.227Z,3.10
2019-03-28T19:37:00.077Z,3.10
2019-03-28T19:39:30.741Z,3.27
2019-03-28T19:41:59.672Z,3.20
2019-03-28T19:44:28.487Z,3.43
2019-03-28T19:46:57.378Z,2.93
2019-03-28T19:49:26.281Z,3.30
2019-03-28T19:51:55.165Z,3.40
2019-03-28T19:54:24.012Z,3.50
2019-03-28T19:56:52.978Z,3.33
2019-03-28T19:59:21.802Z,3.70
2019-03-28T20:01:50.724Z,3.40
2019-03-28T20:04:20.156Z,4.15
2019-03-28T20:06:49.385Z,3.57
2019-03-28T20:09:18.383Z,3.80
2019-03-28T20:11:47.038Z,3.90
2019-03-28T20:14:16.646Z,3.27
2019-03-28T20:16:46.274Z,3.60
2019-03-28T20:19:17.716Z,3.13
2019-03-28T20:21:44.003Z,3.70
2019-03-28T20:24:12.840Z,3.80
2019-03-28T20:26:41.702Z,4.20
2019-03-28T20:29:10.565Z,3.80
2019-03-28T20:31:39.445Z,3.40
2019-03-28T20:34:08.260Z,3.80
2019-03-28T20:36:40.760Z,4.40
2019-03-28T20:39:06.297Z,3.80
2019-03-28T20:41:35.681Z,4.27
2019-03-28T20:44:05.298Z,4.40
2019-03-28T20:46:34.132Z,3.93
2019-03-28T20:49:02.974Z,4.60
2019-03-28T20:51:31.827Z,3.40
2019-03-28T20:54:00.674Z,3.60
2019-03-28T20:56:29.528Z,4.30
2019-03-28T20:58:59.130Z,4.65
2019-03-28T21:01:28.728Z,4.20
2019-03-28T21:03:57.569Z,4.40
2019-03-28T21:06:26.414Z,3.93
2019-03-28T21:08:55.282Z,4.03
2019-03-28T21:11:24.124Z,4.50
2019-03-28T21:13:52.978Z,4.50
2019-03-28T21:16:21.830Z,5.00
2019-03-28T21:18:50.663Z,4.13
2019-03-28T21:21:20.271Z,6.63
2019-03-28T21:23:49.121Z,7.82
2019-03-28T21:26:17.995Z,5.80
2019-03-28T21:28:47.835Z,5.93
2019-03-28T21:31:16.388Z,6.20
2019-03-28T21:33:45.247Z,5.10
2019-03-28T21:36:28.583Z,5.10
2019-03-28T21:38:44.471Z,6.07
2019-03-28T21:41:14.052Z,5.30
2019-03-28T21:43:42.906Z,5.07
2019-03-28T21:46:11.747Z,5.30
2019-03-28T21:48:41.334Z,5.27
2019-03-28T21:51:11.651Z,4.90
2019-03-28T21:53:39.058Z,6.35
2019-03-28T21:56:07.917Z,5.17
2019-03-28T21:58:37.533Z,5.00
2019-03-28T22:01:07.008Z,5.60
2019-03-28T22:03:35.259Z,5.40
2019-03-28T22:06:04.086Z,5.37
2019-03-28T22:08:33.035Z,5.50
2019-03-28T22:11:02.577Z,7.40
2019-03-28T22:13:31.509Z,6.90
2019-03-28T22:16:01.124Z,7.35
2019-03-28T22:18:29.973Z,6.75
2019-03-28T22:20:58.792Z,6.85
2019-03-28T22:23:27.622Z,6.27
2019-03-28T22:25:56.516Z,6.57
2019-03-28T22:28:25.343Z,6.30
2019-03-28T22:30:54.233Z,5.63
2019-03-28T22:33:23.810Z,6.77
2019-03-28T22:35:52.664Z,6.20
2019-03-28T22:38:21.520Z,6.27
2019-03-28T22:40:50.577Z,6.70
2019-03-28T22:43:19.393Z,6.43
2019-03-28T22:45:48.989Z,6.23
2019-03-28T22:48:17.867Z,7.07
2019-03-28T22:50:46.703Z,6.60
2019-03-28T22:53:15.560Z,5.30
2019-03-28T22:55:45.163Z,5.20
2019-03-28T22:58:14.188Z,5.43
2019-03-28T23:00:45.879Z,5.57
2019-03-28T23:03:14.732Z,6.05
2019-03-28T23:05:43.593Z,5.53
2019-03-28T23:08:12.419Z,5.53
2019-03-28T23:10:41.266Z,5.20
2019-03-28T23:13:10.486Z,5.70
2019-03-28T23:15:39.311Z,6.50
2019-03-28T23:18:08.161Z,6.77
2019-03-28T23:20:37.744Z,6.80
2019-03-28T23:23:06.588Z,8.17
2019-03-28T23:25:36.292Z,8.00
2019-03-28T23:28:04.275Z,8.40
2019-03-28T23:30:33.102Z,7.63
2019-03-28T23:33:01.964Z,7.43
2019-03-28T23:35:30.813Z,8.60
2019-03-28T23:37:59.654Z,6.60
2019-03-28T23:40:29.907Z,7.87
2019-03-28T23:42:57.332Z,7.13
2019-03-28T23:45:26.164Z,7.47
2019-03-28T23:47:55.810Z,8.20
2019-03-28T23:50:23.860Z,8.33
2019-03-28T23:52:52.731Z,9.27
2019-03-28T23:55:21.600Z,10.80
2019-03-28T23:57:50.455Z,9.82
